sensor_id;sensor_type;location;lat;lon;timestamp;temperature;humidity
10437;DHT22;5265;50.006;9.202;2023-02-08T00:01:18;-4.00;99.90
10437;DHT22;5265;50.006;9.202;2023-02-08T00:03:46;-4.20;99.90
10437;DHT22;5265;50.006;9.202;2023-02-08T00:06:14;-3.80;99.90
10437;DHT22;5265;50.006;9.202;2023-02-08T00:08:41;-4.00;99.90
10437;DHT22;5265;50.006;9.202;2023-02-08T00:11:08;-3.90;99.90
10437;DHT22;5265;50.006;9.202;2023-02-08T00:13:36;-4.20;99.90
10437;DHT22;5265;50.006;9.202;2023-02-08T00:16:04;-3.90;99.90
10437;DHT22;5265;50.006;9.202;2023-02-08T00:18:31;-4.40;99.90
10437;DHT22;5265;50.006;9.202;2023-02-08T00:20:59;-4.00;99.90
10437;DHT22;5265;50.006;9.202;2023-02-08T00:23:26;-4.20;99.90
10437;DHT22;5265;50.006;9.202;2023-02-08T00:25:54;-3.80;99.90
10437;DHT22;5265;50.006;9.202;2023-02-08T00:28:20;-3.90;99.90
10437;DHT22;5265;50.006;9.202;2023-02-08T00:30:48;-4.20;99.90
10437;DHT22;5265;50.006;9.202;2023-02-08T00:33:15;-4.20;99.90
10437;DHT22;5265;50.006;9.202;2023-02-08T00:35:42;-4.20;99.90
10437;DHT22;5265;50.006;9.202;2023-02-08T00:38:10;-4.20;99.90
10437;DHT22;5265;50.006;9.202;2023-02-08T00:40:38;-3.90;99.90
10437;DHT22;5265;50.006;9.202;2023-02-08T00:43:05;-4.10;99.90
10437;DHT22;5265;50.006;9.202;2023-02-08T00:45:33;-4.10;99.90
10437;DHT22;5265;50.006;9.202;2023-02-08T00:48:00;-4.10;99.90
10437;DHT22;5265;50.006;9.202;2023-02-08T00:50:27;-3.90;99.90
10437;DHT22;5265;50.006;9.202;2023-02-08T00:52:55;-4.10;99.90
10437;DHT22;5265;50.006;9.202;2023-02-08T00:55:25;-4.40;99.90
10437;DHT22;5265;50.006;9.202;2023-02-08T00:57:52;-4.00;99.90
10437;DHT22;5265;50.006;9.202;2023-02-08T01:00:19;-4.20;99.90
10437;DHT22;5265;50.006;9.202;2023-02-08T01:02:47;-4.30;99.90
10437;DHT22;5265;50.006;9.202;2023-02-08T01:05:14;-4.30;99.90
10437;DHT22;5265;50.006;9.202;2023-02-08T01:07:41;-4.30;99.90
10437;DHT22;5265;50.006;9.202;2023-02-08T01:10:08;-4.20;99.90
10437;DHT22;5265;50.006;9.202;2023-02-08T01:12:38;-4.30;99.90
10437;DHT22;5265;50.006;9.202;2023-02-08T01:15:05;-4.30;99.90
10437;DHT22;5265;50.006;9.202;2023-02-08T01:17:33;-4.30;99.90
10437;DHT22;5265;50.006;9.202;2023-02-08T01:20:00;-4.60;99.90
10437;DHT22;5265;50.006;9.202;2023-02-08T01:22:27;-4.60;99.90
10437;DHT22;5265;50.006;9.202;2023-02-08T01:24:54;-4.20;99.90
10437;DHT22;5265;50.006;9.202;2023-02-08T01:27:21;-4.20;99.90
10437;DHT22;5265;50.006;9.202;2023-02-08T01:29:50;-4.20;99.90
10437;DHT22;5265;50.006;9.202;2023-02-08T01:32:17;-4.50;99.90
10437;DHT22;5265;50.006;9.202;2023-02-08T01:34:44;-4.20;99.90
10437;DHT22;5265;50.006;9.202;2023-02-08T01:37:11;-4.40;99.90
10437;DHT22;5265;50.006;9.202;2023-02-08T01:39:38;-4.50;99.90
10437;DHT22;5265;50.006;9.202;2023-02-08T01:42:05;-4.50;99.90
10437;DHT22;5265;50.006;9.202;2023-02-08T01:47:31;-4.60;99.90
10437;DHT22;5265;50.006;9.202;2023-02-08T01:49:58;-4.40;99.90
10437;DHT22;5265;50.006;9.202;2023-02-08T01:52:25;-4.70;99.90
10437;DHT22;5265;50.006;9.202;2023-02-08T01:54:56;-4.40;99.90
10437;DHT22;5265;50.006;9.202;2023-02-08T01:57:23;-4.40;99.90
10437;DHT22;5265;50.006;9.202;2023-02-08T01:59:51;-4.40;99.90
10437;DHT22;5265;50.006;9.202;2023-02-08T02:02:22;-4.20;99.90
10437;DHT22;5265;50.006;9.202;2023-02-08T02:04:53;-4.30;99.90
10437;DHT22;5265;50.006;9.202;2023-02-08T02:07:21;-4.70;99.90
10437;DHT22;5265;50.006;9.202;2023-02-08T02:09:51;-4.50;99.90
10437;DHT22;5265;50.006;9.202;2023-02-08T02:12:19;-4.80;99.90
10437;DHT22;5265;50.006;9.202;2023-02-08T02:14:46;-4.50;99.90
10437;DHT22;5265;50.006;9.202;2023-02-08T02:17:14;-4.70;99.90
10437;DHT22;5265;50.006;9.202;2023-02-08T02:22:16;-4.70;99.90
10437;DHT22;5265;50.006;9.202;2023-02-08T02:25:01;-4.80;99.90
10437;DHT22;5265;50.006;9.202;2023-02-08T02:27:39;-4.90;99.90
10437;DHT22;5265;50.006;9.202;2023-02-08T02:30:30;-4.60;99.90
10437;DHT22;5265;50.006;9.202;2023-02-08T02:35:47;-4.50;99.90
10437;DHT22;5265;50.006;9.202;2023-02-08T02:38:17;-4.60;99.90
10437;DHT22;5265;50.006;9.202;2023-02-08T02:40:48;-4.80;99.90
10437;DHT22;5265;50.006;9.202;2023-02-08T02:43:17;-4.80;99.90
10437;DHT22;5265;50.006;9.202;2023-02-08T02:48:32;-4.70;99.90
10437;DHT22;5265;50.006;9.202;2023-02-08T02:51:06;-4.90;99.90
10437;DHT22;5265;50.006;9.202;2023-02-08T02:53:36;-4.80;99.90
10437;DHT22;5265;50.006;9.202;2023-02-08T02:56:08;-4.90;99.90
10437;DHT22;5265;50.006;9.202;2023-02-08T02:58:37;-5.10;99.90
10437;DHT22;5265;50.006;9.202;2023-02-08T03:01:05;-4.90;99.90
10437;DHT22;5265;50.006;9.202;2023-02-08T03:03:33;-5.20;99.90
10437;DHT22;5265;50.006;9.202;2023-02-08T03:11:01;-4.90;99.90
10437;DHT22;5265;50.006;9.202;2023-02-08T03:13:33;-4.80;99.90
10437;DHT22;5265;50.006;9.202;2023-02-08T03:16:08;-4.80;99.90
10437;DHT22;5265;50.006;9.202;2023-02-08T03:18:44;-4.90;99.90
10437;DHT22;5265;50.006;9.202;2023-02-08T03:23:44;-5.00;99.90
10437;DHT22;5265;50.006;9.202;2023-02-08T03:26:16;-5.30;99.90
10437;DHT22;5265;50.006;9.202;2023-02-08T03:28:45;-5.10;99.90
10437;DHT22;5265;50.006;9.202;2023-02-08T03:36:09;-5.10;99.90
10437;DHT22;5265;50.006;9.202;2023-02-08T03:38:40;-5.20;99.90
10437;DHT22;5265;50.006;9.202;2023-02-08T03:41:10;-5.00;99.90
10437;DHT22;5265;50.006;9.202;2023-02-08T03:48:33;-5.30;99.90
10437;DHT22;5265;50.006;9.202;2023-02-08T03:53:29;-5.30;99.90
10437;DHT22;5265;50.006;9.202;2023-02-08T03:56:04;-5.30;99.90
10437;DHT22;5265;50.006;9.202;2023-02-08T04:01:02;-5.20;99.90
10437;DHT22;5265;50.006;9.202;2023-02-08T04:05:59;-5.10;99.90
10437;DHT22;5265;50.006;9.202;2023-02-08T04:08:26;-5.30;99.90
10437;DHT22;5265;50.006;9.202;2023-02-08T04:10:53;-5.60;99.90
10437;DHT22;5265;50.006;9.202;2023-02-08T04:13:20;-5.20;99.90
10437;DHT22;5265;50.006;9.202;2023-02-08T04:18:15;-5.50;99.90
10437;DHT22;5265;50.006;9.202;2023-02-08T04:20:42;-5.60;99.90
10437;DHT22;5265;50.006;9.202;2023-02-08T04:25:38;-5.80;99.90
10437;DHT22;5265;50.006;9.202;2023-02-08T04:28:05;-5.80;99.90
10437;DHT22;5265;50.006;9.202;2023-02-08T04:37:54;-5.30;99.90
10437;DHT22;5265;50.006;9.202;2023-02-08T04:40:21;-5.60;99.90
10437;DHT22;5265;50.006;9.202;2023-02-08T04:42:50;-5.70;99.90
10437;DHT22;5265;50.006;9.202;2023-02-08T04:45:17;-5.70;99.90
10437;DHT22;5265;50.006;9.202;2023-02-08T04:47:44;-5.50;99.90
10437;DHT22;5265;50.006;9.202;2023-02-08T04:50:11;-5.80;99.90
10437;DHT22;5265;50.006;9.202;2023-02-08T04:55:06;-5.70;99.90
10437;DHT22;5265;50.006;9.202;2023-02-08T04:57:33;-5.70;99.90
10437;DHT22;5265;50.006;9.202;2023-02-08T05:02:29;-5.60;99.90
10437;DHT22;5265;50.006;9.202;2023-02-08T05:04:56;-5.80;99.90
10437;DHT22;5265;50.006;9.202;2023-02-08T05:07:23;-5.50;99.90
10437;DHT22;5265;50.006;9.202;2023-02-08T05:09:50;-5.60;99.90
10437;DHT22;5265;50.006;9.202;2023-02-08T05:14:44;-5.50;99.90
10437;DHT22;5265;50.006;9.202;2023-02-08T05:19:40;-5.60;99.90
10437;DHT22;5265;50.006;9.202;2023-02-08T05:24:34;-5.60;99.90
10437;DHT22;5265;50.006;9.202;2023-02-08T05:29:29;-5.60;99.90
10437;DHT22;5265;50.006;9.202;2023-02-08T05:31:56;-5.50;99.90
10437;DHT22;5265;50.006;9.202;2023-02-08T05:34:23;-5.30;99.90
10437;DHT22;5265;50.006;9.202;2023-02-08T05:36:51;-5.60;99.90
10437;DHT22;5265;50.006;9.202;2023-02-08T05:39:18;-5.40;99.90
10437;DHT22;5265;50.006;9.202;2023-02-08T05:41:45;-5.50;99.90
10437;DHT22;5265;50.006;9.202;2023-02-08T05:44:14;-5.40;99.90
10437;DHT22;5265;50.006;9.202;2023-02-08T05:46:41;-5.50;99.90
10437;DHT22;5265;50.006;9.202;2023-02-08T05:49:08;-5.50;99.90
10437;DHT22;5265;50.006;9.202;2023-02-08T05:51:35;-5.30;99.90
10437;DHT22;5265;50.006;9.202;2023-02-08T05:54:04;-5.40;99.90
10437;DHT22;5265;50.006;9.202;2023-02-08T05:56:31;-5.30;99.90
10437;DHT22;5265;50.006;9.202;2023-02-08T05:58:59;-5.30;99.90
10437;DHT22;5265;50.006;9.202;2023-02-08T06:01:26;-5.30;99.90
10437;DHT22;5265;50.006;9.202;2023-02-08T06:03:53;-5.30;99.90
10437;DHT22;5265;50.006;9.202;2023-02-08T06:06:21;-5.20;99.90
10437;DHT22;5265;50.006;9.202;2023-02-08T06:11:17;-5.20;99.90
10437;DHT22;5265;50.006;9.202;2023-02-08T06:13:44;-5.20;99.90
10437;DHT22;5265;50.006;9.202;2023-02-08T06:16:12;-5.50;99.90
10437;DHT22;5265;50.006;9.202;2023-02-08T06:18:39;-5.20;99.90
10437;DHT22;5265;50.006;9.202;2023-02-08T06:21:06;-5.70;99.90
10437;DHT22;5265;50.006;9.202;2023-02-08T06:23:34;-5.40;99.90
10437;DHT22;5265;50.006;9.202;2023-02-08T06:26:01;-5.20;99.90
10437;DHT22;5265;50.006;9.202;2023-02-08T06:28:30;-5.20;99.90
10437;DHT22;5265;50.006;9.202;2023-02-08T06:30:57;-5.30;99.90
10437;DHT22;5265;50.006;9.202;2023-02-08T06:33:24;-5.40;99.90
10437;DHT22;5265;50.006;9.202;2023-02-08T06:35:51;-5.20;99.90
10437;DHT22;5265;50.006;9.202;2023-02-08T06:38:18;-5.40;99.90
10437;DHT22;5265;50.006;9.202;2023-02-08T06:40:46;-5.20;99.90
10437;DHT22;5265;50.006;9.202;2023-02-08T06:45:44;-5.20;99.90
10437;DHT22;5265;50.006;9.202;2023-02-08T06:53:06;-5.30;99.90
10437;DHT22;5265;50.006;9.202;2023-02-08T06:55:33;-5.60;99.90
10437;DHT22;5265;50.006;9.202;2023-02-08T06:58:01;-5.40;99.90
10437;DHT22;5265;50.006;9.202;2023-02-08T07:00:28;-5.30;99.90
10437;DHT22;5265;50.006;9.202;2023-02-08T07:02:56;-5.50;99.90
10437;DHT22;5265;50.006;9.202;2023-02-08T07:05:25;-5.40;99.90
10437;DHT22;5265;50.006;9.202;2023-02-08T07:07:52;-5.50;99.90
10437;DHT22;5265;50.006;9.202;2023-02-08T07:10:19;-5.20;99.90
10437;DHT22;5265;50.006;9.202;2023-02-08T07:12:46;-5.40;99.90
10437;DHT22;5265;50.006;9.202;2023-02-08T07:15:13;-5.50;99.90
10437;DHT22;5265;50.006;9.202;2023-02-08T07:17:40;-5.50;99.90
10437;DHT22;5265;50.006;9.202;2023-02-08T07:22:37;-5.40;99.90
10437;DHT22;5265;50.006;9.202;2023-02-08T07:25:05;-5.30;99.90
10437;DHT22;5265;50.006;9.202;2023-02-08T07:27:33;-5.30;99.90
10437;DHT22;5265;50.006;9.202;2023-02-08T07:30:00;-5.10;99.90
10437;DHT22;5265;50.006;9.202;2023-02-08T07:32:27;-4.90;99.90
10437;DHT22;5265;50.006;9.202;2023-02-08T07:34:54;-5.10;99.90
10437;DHT22;5265;50.006;9.202;2023-02-08T07:37:21;-4.90;99.90
10437;DHT22;5265;50.006;9.202;2023-02-08T07:39:50;-4.90;99.90
10437;DHT22;5265;50.006;9.202;2023-02-08T07:42:17;-4.90;99.90
10437;DHT22;5265;50.006;9.202;2023-02-08T07:45:08;-4.80;99.90
10437;DHT22;5265;50.006;9.202;2023-02-08T07:47:34;-4.80;99.90
10437;DHT22;5265;50.006;9.202;2023-02-08T07:50:02;-4.70;99.90
10437;DHT22;5265;50.006;9.202;2023-02-08T07:52:29;-4.70;99.90
10437;DHT22;5265;50.006;9.202;2023-02-08T07:54:58;-4.60;99.90
10437;DHT22;5265;50.006;9.202;2023-02-08T07:57:25;-4.50;99.90
10437;DHT22;5265;50.006;9.202;2023-02-08T07:59:52;-4.30;99.90
10437;DHT22;5265;50.006;9.202;2023-02-08T08:02:19;-4.10;99.90
10437;DHT22;5265;50.006;9.202;2023-02-08T08:04:46;-4.00;99.90
10437;DHT22;5265;50.006;9.202;2023-02-08T08:07:14;-4.10;99.90
10437;DHT22;5265;50.006;9.202;2023-02-08T08:09:41;-3.60;99.90
10437;DHT22;5265;50.006;9.202;2023-02-08T08:12:10;-3.60;99.90
10437;DHT22;5265;50.006;9.202;2023-02-08T08:14:37;-3.50;99.90
10437;DHT22;5265;50.006;9.202;2023-02-08T08:17:04;-3.30;99.90
10437;DHT22;5265;50.006;9.202;2023-02-08T08:19:31;-3.20;99.90
10437;DHT22;5265;50.006;9.202;2023-02-08T08:21:58;-2.10;99.90
10437;DHT22;5265;50.006;9.202;2023-02-08T08:24:25;-2.90;99.90
10437;DHT22;5265;50.006;9.202;2023-02-08T08:26:53;-2.90;99.90
10437;DHT22;5265;50.006;9.202;2023-02-08T08:29:21;-2.90;99.90
10437;DHT22;5265;50.006;9.202;2023-02-08T08:31:49;-2.60;99.90
10437;DHT22;5265;50.006;9.202;2023-02-08T08:34:16;-2.50;99.90
10437;DHT22;5265;50.006;9.202;2023-02-08T08:36:43;-1.70;99.90
10437;DHT22;5265;50.006;9.202;2023-02-08T08:39:10;-2.30;99.90
10437;DHT22;5265;50.006;9.202;2023-02-08T08:41:37;-2.20;99.90
10437;DHT22;5265;50.006;9.202;2023-02-08T08:44:04;-2.10;99.90
10437;DHT22;5265;50.006;9.202;2023-02-08T08:46:33;-2.00;99.90
10437;DHT22;5265;50.006;9.202;2023-02-08T08:49:00;-1.70;99.90
10437;DHT22;5265;50.006;9.202;2023-02-08T08:51:27;-1.90;99.90
10437;DHT22;5265;50.006;9.202;2023-02-08T08:53:56;-2.00;99.90
10437;DHT22;5265;50.006;9.202;2023-02-08T08:56:23;-1.40;99.90
10437;DHT22;5265;50.006;9.202;2023-02-08T08:58:50;-0.90;99.90
10437;DHT22;5265;50.006;9.202;2023-02-08T09:01:17;-1.20;99.90
10437;DHT22;5265;50.006;9.202;2023-02-08T09:03:46;-1.30;99.90
10437;DHT22;5265;50.006;9.202;2023-02-08T09:06:13;-1.50;99.90
10437;DHT22;5265;50.006;9.202;2023-02-08T09:08:40;-1.50;99.90
10437;DHT22;5265;50.006;9.202;2023-02-08T09:11:08;-0.90;99.90
10437;DHT22;5265;50.006;9.202;2023-02-08T09:13:36;-1.30;99.90
10437;DHT22;5265;50.006;9.202;2023-02-08T09:16:03;-1.10;99.90
10437;DHT22;5265;50.006;9.202;2023-02-08T09:18:31;-1.30;99.90
10437;DHT22;5265;50.006;9.202;2023-02-08T09:20:59;-1.20;99.90
10437;DHT22;5265;50.006;9.202;2023-02-08T09:23:30;-1.10;99.90
10437;DHT22;5265;50.006;9.202;2023-02-08T09:25:57;-1.10;99.90
10437;DHT22;5265;50.006;9.202;2023-02-08T09:28:24;-1.00;99.90
10437;DHT22;5265;50.006;9.202;2023-02-08T09:30:51;-0.30;99.90
10437;DHT22;5265;50.006;9.202;2023-02-08T09:33:18;-0.90;99.90
10437;DHT22;5265;50.006;9.202;2023-02-08T09:35:45;-0.80;99.90
10437;DHT22;5265;50.006;9.202;2023-02-08T09:38:14;-0.70;99.90
10437;DHT22;5265;50.006;9.202;2023-02-08T09:40:41;-0.80;99.90
10437;DHT22;5265;50.006;9.202;2023-02-08T09:43:12;-0.70;99.90
10437;DHT22;5265;50.006;9.202;2023-02-08T09:45:46;-0.40;99.90
10437;DHT22;5265;50.006;9.202;2023-02-08T09:48:19;-0.60;99.90
10437;DHT22;5265;50.006;9.202;2023-02-08T09:50:49;-0.40;99.90
10437;DHT22;5265;50.006;9.202;2023-02-08T09:53:20;-0.30;99.90
10437;DHT22;5265;50.006;9.202;2023-02-08T09:55:48;-0.10;99.90
10437;DHT22;5265;50.006;9.202;2023-02-08T09:58:19;-0.30;99.90
10437;DHT22;5265;50.006;9.202;2023-02-08T10:00:47;0.00;99.90
10437;DHT22;5265;50.006;9.202;2023-02-08T10:03:19;0.90;99.90
10437;DHT22;5265;50.006;9.202;2023-02-08T10:05:47;0.00;99.90
10437;DHT22;5265;50.006;9.202;2023-02-08T10:08:14;0.10;99.90
10437;DHT22;5265;50.006;9.202;2023-02-08T10:10:45;0.10;99.90
10437;DHT22;5265;50.006;9.202;2023-02-08T10:13:20;0.40;99.90
10437;DHT22;5265;50.006;9.202;2023-02-08T10:15:52;0.40;99.90
10437;DHT22;5265;50.006;9.202;2023-02-08T10:18:25;0.50;99.90
10437;DHT22;5265;50.006;9.202;2023-02-08T10:21:01;0.50;99.90
10437;DHT22;5265;50.006;9.202;2023-02-08T10:23:37;0.50;99.90
10437;DHT22;5265;50.006;9.202;2023-02-08T10:26:11;0.50;99.90
10437;DHT22;5265;50.006;9.202;2023-02-08T10:28:53;0.70;99.90
10437;DHT22;5265;50.006;9.202;2023-02-08T10:31:24;0.80;99.90
10437;DHT22;5265;50.006;9.202;2023-02-08T10:33:58;0.90;99.90
10437;DHT22;5265;50.006;9.202;2023-02-08T10:36:27;1.90;99.90
10437;DHT22;5265;50.006;9.202;2023-02-08T10:38:55;1.30;99.90
10437;DHT22;5265;50.006;9.202;2023-02-08T10:41:25;1.10;99.90
10437;DHT22;5265;50.006;9.202;2023-02-08T10:43:54;1.00;99.90
10437;DHT22;5265;50.006;9.202;2023-02-08T10:46:28;1.10;99.90
10437;DHT22;5265;50.006;9.202;2023-02-08T10:48:59;1.50;99.90
10437;DHT22;5265;50.006;9.202;2023-02-08T10:51:28;1.40;99.90
10437;DHT22;5265;50.006;9.202;2023-02-08T10:53:56;1.30;99.90
10437;DHT22;5265;50.006;9.202;2023-02-08T10:59:16;1.60;99.90
10437;DHT22;5265;50.006;9.202;2023-02-08T11:01:45;1.80;99.90
10437;DHT22;5265;50.006;9.202;2023-02-08T11:04:13;1.70;99.90
10437;DHT22;5265;50.006;9.202;2023-02-08T11:06:41;1.90;99.90
10437;DHT22;5265;50.006;9.202;2023-02-08T11:09:18;1.70;99.90
10437;DHT22;5265;50.006;9.202;2023-02-08T11:11:45;2.00;99.90
10437;DHT22;5265;50.006;9.202;2023-02-08T11:14:17;2.00;99.90
10437;DHT22;5265;50.006;9.202;2023-02-08T11:16:48;2.10;99.90
10437;DHT22;5265;50.006;9.202;2023-02-08T11:19:19;2.20;99.90
10437;DHT22;5265;50.006;9.202;2023-02-08T11:21:48;2.10;99.90
10437;DHT22;5265;50.006;9.202;2023-02-08T11:24:21;2.30;99.90
10437;DHT22;5265;50.006;9.202;2023-02-08T11:26:51;2.30;99.90
10437;DHT22;5265;50.006;9.202;2023-02-08T11:29:20;2.30;99.90
10437;DHT22;5265;50.006;9.202;2023-02-08T11:31:55;2.50;99.90
10437;DHT22;5265;50.006;9.202;2023-02-08T11:34:23;2.50;99.90
10437;DHT22;5265;50.006;9.202;2023-02-08T11:36:51;2.50;99.90
10437;DHT22;5265;50.006;9.202;2023-02-08T11:39:20;2.40;99.90
10437;DHT22;5265;50.006;9.202;2023-02-08T11:41:49;2.60;99.90
10437;DHT22;5265;50.006;9.202;2023-02-08T11:44:20;2.60;99.90
10437;DHT22;5265;50.006;9.202;2023-02-08T11:46:48;2.60;99.90
10437;DHT22;5265;50.006;9.202;2023-02-08T11:49:19;2.70;99.50
10437;DHT22;5265;50.006;9.202;2023-02-08T11:51:47;2.60;99.20
10437;DHT22;5265;50.006;9.202;2023-02-08T11:54:30;2.80;98.90
10437;DHT22;5265;50.006;9.202;2023-02-08T11:57:00;2.80;98.40
10437;DHT22;5265;50.006;9.202;2023-02-08T11:59:28;3.00;98.50
10437;DHT22;5265;50.006;9.202;2023-02-08T12:01:56;3.10;98.30
10437;DHT22;5265;50.006;9.202;2023-02-08T12:04:23;3.20;98.30
10437;DHT22;5265;50.006;9.202;2023-02-08T12:07:01;3.20;97.80
10437;DHT22;5265;50.006;9.202;2023-02-08T12:09:39;3.20;97.80
10437;DHT22;5265;50.006;9.202;2023-02-08T12:12:10;3.80;98.20
10437;DHT22;5265;50.006;9.202;2023-02-08T12:14:49;3.30;98.20
10437;DHT22;5265;50.006;9.202;2023-02-08T12:17:34;3.30;98.40
10437;DHT22;5265;50.006;9.202;2023-02-08T12:22:55;3.30;98.10
10437;DHT22;5265;50.006;9.202;2023-02-08T12:25:27;3.40;97.90
10437;DHT22;5265;50.006;9.202;2023-02-08T12:28:00;3.50;98.20
10437;DHT22;5265;50.006;9.202;2023-02-08T12:30:31;3.50;98.30
10437;DHT22;5265;50.006;9.202;2023-02-08T12:33:05;3.50;98.70
10437;DHT22;5265;50.006;9.202;2023-02-08T12:35:44;3.60;98.30
10437;DHT22;5265;50.006;9.202;2023-02-08T12:38:14;3.60;98.10
10437;DHT22;5265;50.006;9.202;2023-02-08T12:41:05;3.70;98.30
10437;DHT22;5265;50.006;9.202;2023-02-08T12:43:40;4.10;98.70
10437;DHT22;5265;50.006;9.202;2023-02-08T12:46:18;3.70;98.70
10437;DHT22;5265;50.006;9.202;2023-02-08T12:51:32;3.80;98.80
10437;DHT22;5265;50.006;9.202;2023-02-08T12:54:02;3.90;98.90
10437;DHT22;5265;50.006;9.202;2023-02-08T12:56:31;4.10;98.80
10437;DHT22;5265;50.006;9.202;2023-02-08T12:59:01;4.10;98.50
10437;DHT22;5265;50.006;9.202;2023-02-08T13:01:32;4.20;98.70
10437;DHT22;5265;50.006;9.202;2023-02-08T13:04:02;4.60;98.70
10437;DHT22;5265;50.006;9.202;2023-02-08T13:06:31;4.70;98.50
10437;DHT22;5265;50.006;9.202;2023-02-08T13:09:02;4.60;98.60
10437;DHT22;5265;50.006;9.202;2023-02-08T13:11:32;4.60;98.30
10437;DHT22;5265;50.006;9.202;2023-02-08T13:14:01;5.00;98.30
10437;DHT22;5265;50.006;9.202;2023-02-08T13:16:30;5.20;98.20
10437;DHT22;5265;50.006;9.202;2023-02-08T13:19:20;5.50;97.40
10437;DHT22;5265;50.006;9.202;2023-02-08T13:21:48;6.00;97.10
10437;DHT22;5265;50.006;9.202;2023-02-08T13:24:20;6.50;96.60
10437;DHT22;5265;50.006;9.202;2023-02-08T13:26:48;6.70;96.10
10437;DHT22;5265;50.006;9.202;2023-02-08T13:29:16;7.10;96.10
10437;DHT22;5265;50.006;9.202;2023-02-08T13:31:43;7.30;95.20
10437;DHT22;5265;50.006;9.202;2023-02-08T13:34:16;7.70;95.10
10437;DHT22;5265;50.006;9.202;2023-02-08T13:36:48;7.70;94.60
10437;DHT22;5265;50.006;9.202;2023-02-08T13:39:24;8.00;94.50
10437;DHT22;5265;50.006;9.202;2023-02-08T13:41:54;8.00;94.60
10437;DHT22;5265;50.006;9.202;2023-02-08T13:44:22;8.20;94.10
10437;DHT22;5265;50.006;9.202;2023-02-08T13:46:51;8.30;93.90
10437;DHT22;5265;50.006;9.202;2023-02-08T13:52:01;8.20;93.40
10437;DHT22;5265;50.006;9.202;2023-02-08T13:54:28;8.30;93.80
10437;DHT22;5265;50.006;9.202;2023-02-08T13:56:55;8.50;92.90
10437;DHT22;5265;50.006;9.202;2023-02-08T13:59:33;8.60;93.40
10437;DHT22;5265;50.006;9.202;2023-02-08T14:04:47;8.60;92.80
10437;DHT22;5265;50.006;9.202;2023-02-08T14:07:22;8.80;92.70
10437;DHT22;5265;50.006;9.202;2023-02-08T14:09:52;8.80;92.70
10437;DHT22;5265;50.006;9.202;2023-02-08T14:12:28;9.00;92.90
10437;DHT22;5265;50.006;9.202;2023-02-08T14:15:04;9.20;92.80
10437;DHT22;5265;50.006;9.202;2023-02-08T14:17:31;9.20;92.40
10437;DHT22;5265;50.006;9.202;2023-02-08T14:19:59;9.30;92.50
10437;DHT22;5265;50.006;9.202;2023-02-08T14:22:30;9.30;91.80
10437;DHT22;5265;50.006;9.202;2023-02-08T14:24:59;9.30;91.60
10437;DHT22;5265;50.006;9.202;2023-02-08T14:27:27;9.30;91.80
10437;DHT22;5265;50.006;9.202;2023-02-08T14:29:57;9.40;91.60
10437;DHT22;5265;50.006;9.202;2023-02-08T14:32:25;9.40;91.70
10437;DHT22;5265;50.006;9.202;2023-02-08T14:35:00;9.20;91.40
10437;DHT22;5265;50.006;9.202;2023-02-08T14:37:31;9.20;91.90
10437;DHT22;5265;50.006;9.202;2023-02-08T14:42:53;9.40;91.50
10437;DHT22;5265;50.006;9.202;2023-02-08T14:45:25;9.60;91.70
10437;DHT22;5265;50.006;9.202;2023-02-08T14:47:53;9.70;91.60
10437;DHT22;5265;50.006;9.202;2023-02-08T14:50:22;9.50;91.20
10437;DHT22;5265;50.006;9.202;2023-02-08T14:52:53;9.50;91.20
10437;DHT22;5265;50.006;9.202;2023-02-08T14:55:22;9.40;91.10
10437;DHT22;5265;50.006;9.202;2023-02-08T14:57:51;9.40;90.90
10437;DHT22;5265;50.006;9.202;2023-02-08T15:00:20;9.40;90.60
10437;DHT22;5265;50.006;9.202;2023-02-08T15:02:47;9.40;90.80
10437;DHT22;5265;50.006;9.202;2023-02-08T15:05:19;9.40;90.90
10437;DHT22;5265;50.006;9.202;2023-02-08T15:07:48;9.20;91.10
10437;DHT22;5265;50.006;9.202;2023-02-08T15:10:18;9.20;90.90
10437;DHT22;5265;50.006;9.202;2023-02-08T15:12:48;9.20;90.80
10437;DHT22;5265;50.006;9.202;2023-02-08T15:15:20;9.20;90.80
10437;DHT22;5265;50.006;9.202;2023-02-08T15:17:48;9.00;90.80
10437;DHT22;5265;50.006;9.202;2023-02-08T15:20:18;8.90;90.80
10437;DHT22;5265;50.006;9.202;2023-02-08T15:22:45;8.90;90.80
10437;DHT22;5265;50.006;9.202;2023-02-08T15:25:21;8.90;91.00
10437;DHT22;5265;50.006;9.202;2023-02-08T15:27:50;9.00;91.00
10437;DHT22;5265;50.006;9.202;2023-02-08T15:30:28;9.00;91.10
10437;DHT22;5265;50.006;9.202;2023-02-08T15:32:56;9.10;90.80
10437;DHT22;5265;50.006;9.202;2023-02-08T15:35:23;9.00;90.90
10437;DHT22;5265;50.006;9.202;2023-02-08T15:37:51;9.00;90.90
10437;DHT22;5265;50.006;9.202;2023-02-08T15:40:24;8.90;91.30
10437;DHT22;5265;50.006;9.202;2023-02-08T15:42:52;8.90;90.90
10437;DHT22;5265;50.006;9.202;2023-02-08T15:45:20;8.80;90.90
10437;DHT22;5265;50.006;9.202;2023-02-08T15:47:47;8.60;91.10
10437;DHT22;5265;50.006;9.202;2023-02-08T15:50:16;8.60;91.00
10437;DHT22;5265;50.006;9.202;2023-02-08T15:52:43;8.50;90.90
10437;DHT22;5265;50.006;9.202;2023-02-08T15:55:11;8.50;90.70
10437;DHT22;5265;50.006;9.202;2023-02-08T15:57:43;8.30;91.20
10437;DHT22;5265;50.006;9.202;2023-02-08T16:00:12;8.30;91.10
10437;DHT22;5265;50.006;9.202;2023-02-08T16:02:41;8.20;91.50
10437;DHT22;5265;50.006;9.202;2023-02-08T16:05:16;8.20;91.30
10437;DHT22;5265;50.006;9.202;2023-02-08T16:07:44;8.10;91.30
10437;DHT22;5265;50.006;9.202;2023-02-08T16:10:20;8.10;91.50
10437;DHT22;5265;50.006;9.202;2023-02-08T16:12:50;8.00;91.40
10437;DHT22;5265;50.006;9.202;2023-02-08T16:15:41;7.80;91.50
10437;DHT22;5265;50.006;9.202;2023-02-08T16:20:55;7.50;91.60
10437;DHT22;5265;50.006;9.202;2023-02-08T16:23:24;7.20;91.60
10437;DHT22;5265;50.006;9.202;2023-02-08T16:25:51;6.80;91.70
10437;DHT22;5265;50.006;9.202;2023-02-08T16:28:25;6.50;92.00
10437;DHT22;5265;50.006;9.202;2023-02-08T16:30:53;6.20;92.30
10437;DHT22;5265;50.006;9.202;2023-02-08T16:33:20;5.70;92.50
10437;DHT22;5265;50.006;9.202;2023-02-08T16:35:48;5.40;93.00
10437;DHT22;5265;50.006;9.202;2023-02-08T16:38:17;5.10;93.30
10437;DHT22;5265;50.006;9.202;2023-02-08T16:40:46;4.90;93.70
10437;DHT22;5265;50.006;9.202;2023-02-08T16:43:18;4.70;94.00
10437;DHT22;5265;50.006;9.202;2023-02-08T16:45:47;4.60;94.10
10437;DHT22;5265;50.006;9.202;2023-02-08T16:48:34;4.50;94.40
10437;DHT22;5265;50.006;9.202;2023-02-08T16:51:02;4.50;94.40
10437;DHT22;5265;50.006;9.202;2023-02-08T16:53:30;4.20;94.70
10437;DHT22;5265;50.006;9.202;2023-02-08T16:55:57;3.90;95.00
10437;DHT22;5265;50.006;9.202;2023-02-08T16:58:25;3.80;95.60
10437;DHT22;5265;50.006;9.202;2023-02-08T17:00:54;3.50;96.20
10437;DHT22;5265;50.006;9.202;2023-02-08T17:03:22;3.30;96.80
10437;DHT22;5265;50.006;9.202;2023-02-08T17:05:49;3.10;97.30
10437;DHT22;5265;50.006;9.202;2023-02-08T17:08:17;2.90;97.80
10437;DHT22;5265;50.006;9.202;2023-02-08T17:10:46;2.70;98.40
10437;DHT22;5265;50.006;9.202;2023-02-08T17:13:16;3.10;99.10
10437;DHT22;5265;50.006;9.202;2023-02-08T17:15:44;2.20;99.40
10437;DHT22;5265;50.006;9.202;2023-02-08T17:18:12;2.00;99.70
10437;DHT22;5265;50.006;9.202;2023-02-08T17:20:39;1.80;99.90
10437;DHT22;5265;50.006;9.202;2023-02-08T17:23:07;1.80;99.90
10437;DHT22;5265;50.006;9.202;2023-02-08T17:25:35;1.70;99.90
10437;DHT22;5265;50.006;9.202;2023-02-08T17:28:03;1.70;99.90
10437;DHT22;5265;50.006;9.202;2023-02-08T17:30:31;1.40;99.90
10437;DHT22;5265;50.006;9.202;2023-02-08T17:32:58;1.40;99.90
10437;DHT22;5265;50.006;9.202;2023-02-08T17:35:27;1.50;99.90
10437;DHT22;5265;50.006;9.202;2023-02-08T17:37:55;1.30;99.90
10437;DHT22;5265;50.006;9.202;2023-02-08T17:40:23;1.10;99.90